createdAt,value
2023-04-29T00:00:47.186Z,100588.34
2023-04-29T00:03:15.059Z,100591.19
2023-04-29T00:05:44.785Z,100593.75
2023-04-29T00:08:12.831Z,100599.19
2023-04-29T00:10:40.648Z,100583.91
2023-04-29T00:13:08.641Z,100590.19
2023-04-29T00:15:37.467Z,100587.47
2023-04-29T00:18:05.095Z,100578.34
2023-04-29T00:20:32.906Z,100570.38
2023-04-29T00:23:01.980Z,100571.34
2023-04-29T00:25:29.679Z,100580.38
2023-04-29T00:28:01.792Z,100583.91
2023-04-29T00:30:29.529Z,100586.63
2023-04-29T00:32:57.466Z,100591.19
2023-04-29T00:35:25.157Z,100581.22
2023-04-29T00:37:52.996Z,100585.78
2023-04-29T00:40:22.054Z,100584.91
2023-04-29T00:42:49.760Z,100581.22
2023-04-29T00:45:17.497Z,100582.91
2023-04-29T00:47:45.228Z,100577.50
2023-04-29T00:50:13.460Z,100570.38
2023-04-29T00:52:41.140Z,100579.34
2023-04-29T00:55:09.853Z,100569.53
2023-04-29T00:57:39.324Z,100566.66
2023-04-29T01:48:28.173Z,100573.38
2023-04-29T01:50:56.075Z,100556.97
2023-04-29T01:53:23.768Z,100566.97
2023-04-29T01:55:51.635Z,100572.38
2023-04-29T01:58:42.427Z,100572.38
2023-04-29T02:48:27.641Z,100555.56
2023-04-29T02:50:55.444Z,100554.72
2023-04-29T02:53:23.413Z,100555.56
2023-04-29T02:55:51.076Z,100547.59
2023-04-29T02:58:18.880Z,100549.28
2023-04-29T03:47:43.605Z,100533.34
2023-04-29T03:50:11.928Z,100543.19
2023-04-29T03:52:41.576Z,100535.06
2023-04-29T03:55:15.541Z,100535.06
2023-04-29T03:57:44.408Z,100540.47
2023-04-29T04:46:01.863Z,100561.28
2023-04-29T04:48:31.375Z,100562.16
2023-04-29T04:51:00.038Z,100571.28
2023-04-29T04:53:27.802Z,100555.03
2023-04-29T04:56:01.897Z,100565.88
2023-04-29T04:58:32.607Z,100567.88
2023-04-29T05:01:00.412Z,100566.72
2023-04-29T05:03:28.361Z,100564.16
2023-04-29T05:05:58.353Z,100572.28
2023-04-29T05:08:26.073Z,100570.44
2023-04-29T05:10:55.176Z,100571.28
2023-04-29T05:13:22.999Z,100574.84
2023-04-29T05:15:50.710Z,100575.88
2023-04-29T05:18:22.695Z,100575.00
2023-04-29T05:20:52.242Z,100585.84
2023-04-29T05:23:21.432Z,100578.56
2023-04-29T05:25:49.136Z,100574.00
2023-04-29T05:28:18.409Z,100582.97
2023-04-29T05:30:46.286Z,100582.13
2023-04-29T05:33:14.053Z,100581.28
2023-04-29T05:35:41.928Z,100578.44
2023-04-29T05:38:10.865Z,100592.97
2023-04-29T05:40:43.065Z,100592.13
2023-04-29T05:43:37.152Z,100589.25
2023-04-29T05:46:06.037Z,100588.97
2023-04-29T05:48:33.743Z,100587.25
2023-04-29T05:51:01.449Z,100595.38
2023-04-29T05:53:29.319Z,100596.38
2023-04-29T05:55:58.608Z,100590.94
2023-04-29T05:58:26.757Z,100596.38
2023-04-29T06:00:54.674Z,100601.78
2023-04-29T06:03:26.078Z,100603.50
2023-04-29T06:06:14.115Z,100600.09
2023-04-29T06:08:58.660Z,100607.22
2023-04-29T06:11:31.497Z,100607.22
2023-04-29T06:14:01.570Z,100611.78
2023-04-29T06:16:29.466Z,100624.34
2023-04-29T06:18:57.186Z,100612.63
2023-04-29T06:21:24.877Z,100633.47
2023-04-29T06:23:53.109Z,100620.75
2023-04-29T06:26:22.398Z,100622.63
2023-04-29T06:28:51.739Z,100622.63
2023-04-29T06:31:21.218Z,100630.91
2023-04-29T06:33:51.298Z,100637.19
2023-04-29T06:36:19.009Z,100638.06
2023-04-29T06:39:11.300Z,100657.72
2023-04-29T06:42:04.480Z,100651.44
2023-04-29T06:44:49.240Z,100671.41
2023-04-29T06:47:40.727Z,100649.72
2023-04-29T06:50:12.760Z,100655.84
2023-04-29T06:52:40.671Z,100663.97
2023-04-29T06:55:08.757Z,100665.84
2023-04-29T06:57:36.839Z,100672.25
2023-04-29T07:00:07.483Z,100669.53
2023-04-29T07:02:35.263Z,100677.69
2023-04-29T07:05:03.802Z,100677.69
2023-04-29T07:07:31.628Z,100680.53
2023-04-29T07:09:59.280Z,100679.38
2023-04-29T07:12:27.752Z,100683.97
2023-04-29T07:14:55.403Z,100688.53
2023-04-29T07:17:24.608Z,100690.22
2023-04-29T07:19:53.460Z,100693.94
2023-04-29T07:22:21.760Z,100697.38
2023-04-29T07:24:49.459Z,100702.78
2023-04-29T07:27:19.161Z,100699.66
2023-04-29T07:29:46.847Z,100709.34
2023-04-29T07:32:15.820Z,100710.19
2023-04-29T07:34:44.923Z,100721.91
2023-04-29T07:37:12.584Z,100722.75
2023-04-29T07:39:42.455Z,100722.75
2023-04-29T07:42:10.159Z,100731.88
2023-04-29T07:44:37.906Z,100732.75
2023-04-29T07:47:05.732Z,100735.47
2023-04-29T07:49:33.416Z,100744.44
2023-04-29T07:52:02.426Z,100750.69
2023-04-29T07:54:30.116Z,100753.41
2023-04-29T07:56:58.820Z,100756.13
2023-04-29T07:59:26.525Z,100757.00
2023-04-29T08:01:54.320Z,100762.56
2023-04-29T08:04:22.112Z,100773.25
2023-04-29T08:06:57.093Z,100776.97
2023-04-29T08:09:26.223Z,100777.81
2023-04-29T08:11:53.921Z,100771.53
2023-04-29T08:14:21.660Z,100793.94
2023-04-29T08:16:49.479Z,100794.94
2023-04-29T08:19:17.210Z,100796.63
2023-04-29T08:21:44.890Z,100801.34
2023-04-29T08:24:12.656Z,100804.06
2023-04-29T08:26:42.464Z,100811.22
2023-04-29T08:29:10.285Z,100804.06
2023-04-29T08:31:38.022Z,100815.91
2023-04-29T08:34:05.759Z,100821.19
2023-04-29T08:36:33.772Z,100822.06
2023-04-29T08:39:01.565Z,100827.47
2023-04-29T08:41:29.318Z,100823.03
2023-04-29T08:43:58.418Z,100835.75
2023-04-29T08:46:26.267Z,100852.84
2023-04-29T08:48:53.945Z,100845.72
2023-04-29T08:51:21.597Z,100851.88
2023-04-29T08:53:49.393Z,100859.72
2023-04-29T08:56:17.812Z,100857.69
2023-04-29T08:58:46.355Z,100864.81
2023-04-29T09:01:15.459Z,100867.41
2023-04-29T09:03:44.661Z,100874.09
2023-04-29T09:06:12.546Z,100877.66
2023-04-29T09:08:40.819Z,100885.69
2023-04-29T09:11:10.039Z,100892.41
2023-04-29T09:13:37.706Z,100886.47
2023-04-29T09:16:06.066Z,100900.09
2023-04-29T09:18:45.332Z,100894.88
2023-04-29T09:21:17.766Z,100908.06
2023-04-29T09:23:46.502Z,100905.88
2023-04-29T09:26:14.239Z,100921.31
2023-04-29T09:28:45.114Z,100914.84
2023-04-29T09:31:13.062Z,100918.53
2023-04-29T09:33:52.565Z,100930.63
2023-04-29T09:36:35.264Z,100934.13
2023-04-29T09:39:03.005Z,100929.91
2023-04-29T09:41:30.766Z,100932.84
2023-04-29T09:44:04.512Z,100941.72
2023-04-29T09:46:33.236Z,100943.81
2023-04-29T09:49:02.712Z,100949.78
2023-04-29T09:51:32.395Z,100955.34
2023-04-29T09:54:01.092Z,100951.03
2023-04-29T09:56:30.897Z,100955.34
2023-04-29T09:58:59.093Z,100958.06
2023-04-29T10:01:27.315Z,100958.22
2023-04-29T10:03:55.007Z,100972.06
2023-04-29T10:06:24.608Z,100968.22
2023-04-29T10:08:52.372Z,100976.72
2023-04-29T10:11:20.159Z,100971.44
2023-04-29T10:13:48.169Z,100982.69
2023-04-29T10:16:18.969Z,100987.28
2023-04-29T10:18:50.406Z,100990.81
2023-04-29T10:21:18.349Z,100992.41
2023-04-29T10:23:47.424Z,100994.97
2023-04-29T10:26:15.137Z,101001.97
2023-04-29T10:28:42.803Z,101001.50
2023-04-29T10:31:10.632Z,101004.09
2023-04-29T10:33:38.384Z,101012.94
2023-04-29T10:36:06.337Z,101015.50
2023-04-29T10:38:36.318Z,101010.66
2023-04-29T10:41:05.505Z,101016.91
2023-04-29T10:43:33.222Z,101018.34
2023-04-29T10:46:18.228Z,101015.22
2023-04-29T10:48:45.913Z,101024.91
2023-04-29T10:51:14.445Z,101025.50
2023-04-29T10:54:01.630Z,101020.91
2023-04-29T10:56:48.153Z,101027.75
2023-04-29T10:59:16.149Z,101025.75
2023-04-29T11:01:44.645Z,101030.34
2023-04-29T11:04:12.636Z,101035.75
2023-04-29T11:06:41.513Z,101038.47
2023-04-29T11:09:11.071Z,101046.47
2023-04-29T11:11:46.967Z,101041.88
2023-04-29T11:14:15.156Z,101042.88
2023-04-29T11:16:49.472Z,101044.44
2023-04-29T11:19:17.341Z,101043.47
2023-04-29T11:21:46.002Z,101056.03
2023-04-29T11:24:15.649Z,101054.03
2023-04-29T11:26:44.521Z,101048.59
2023-04-29T11:29:13.591Z,101055.59
2023-04-29T11:31:41.387Z,101061.88
2023-04-29T11:34:09.133Z,101061.88
2023-04-29T11:36:37.234Z,101061.56
2023-04-29T11:39:05.050Z,101053.44
2023-04-29T11:41:33.096Z,101061.56
2023-04-29T11:44:01.261Z,101060.59
2023-04-29T11:46:32.904Z,101068.59
2023-04-29T11:49:01.522Z,101069.44
2023-04-29T11:51:29.620Z,101073.31
2023-04-29T11:53:58.082Z,101071.72
2023-04-29T11:56:26.259Z,101086.25
2023-04-29T11:58:57.584Z,101093.69
2023-04-29T12:01:26.490Z,101098.41
2023-04-29T12:04:00.845Z,101104.81
2023-04-29T12:06:29.228Z,101097.69
2023-04-29T12:08:56.932Z,101105.81
2023-04-29T12:11:25.559Z,101106.81
2023-04-29T12:13:53.281Z,101105.97
2023-04-29T12:16:20.964Z,101107.66
2023-04-29T12:18:48.628Z,101112.97
2023-04-29T12:21:17.714Z,101124.78
2023-04-29T12:23:45.471Z,101110.25
2023-04-29T12:26:13.779Z,101117.41
2023-04-29T12:28:42.108Z,101110.81
2023-04-29T12:31:10.289Z,101114.25
2023-04-29T12:33:38.076Z,101133.09
2023-04-29T12:36:06.000Z,101122.41
2023-04-29T12:38:35.007Z,101115.09
2023-04-29T12:41:07.272Z,101118.53
2023-04-29T12:43:38.606Z,101123.94
2023-04-29T12:46:07.915Z,101126.66
2023-04-29T12:48:37.199Z,101125.66
2023-04-29T12:51:05.235Z,101132.81
2023-04-29T12:53:32.949Z,101132.81
2023-04-29T12:56:02.024Z,101129.09
2023-04-29T12:58:29.837Z,101131.66
2023-04-29T13:00:57.744Z,101128.09
2023-04-29T13:03:25.781Z,101132.53
2023-04-29T13:05:54.838Z,101119.81
2023-04-29T13:08:23.032Z,101132.53
2023-04-29T13:10:50.993Z,101124.25
2023-04-29T13:13:20.598Z,101123.38
2023-04-29T13:15:48.312Z,101129.69
2023-04-29T13:18:16.011Z,101124.25
2023-04-29T13:20:43.706Z,101131.38
2023-04-29T13:23:12.127Z,101127.81
2023-04-29T13:25:40.027Z,101132.22
2023-04-29T13:28:08.724Z,101140.34
2023-04-29T13:30:37.767Z,101148.47
2023-04-29T13:33:11.840Z,101139.34
2023-04-29T13:35:41.696Z,101151.06
2023-04-29T13:38:09.694Z,101143.06
2023-04-29T13:40:42.911Z,101151.06
2023-04-29T13:43:18.676Z,101139.34
2023-04-29T13:45:53.044Z,101147.50
2023-04-29T13:54:03.057Z,101149.22
2023-04-29T13:59:31.654Z,101147.34
2023-04-29T14:04:02.904Z,101149.91
2023-04-29T14:06:32.373Z,101167.91
2023-04-29T14:09:02.225Z,101149.91
2023-04-29T14:11:31.833Z,101156.34
2023-04-29T14:13:59.507Z,101153.63
2023-04-29T14:16:28.764Z,101152.78
2023-04-29T14:18:57.881Z,101163.63
2023-04-29T14:21:26.332Z,101162.78
2023-04-29T14:23:53.946Z,101162.78
2023-04-29T14:26:28.363Z,101162.78
2023-04-29T14:28:58.334Z,101180.75
2023-04-29T14:31:27.865Z,101170.78
2023-04-29T14:33:55.802Z,101177.03
2023-04-29T14:36:25.004Z,101173.50
2023-04-29T14:38:52.668Z,101171.63
2023-04-29T14:41:21.452Z,101173.50
2023-04-29T14:43:49.138Z,101182.47
2023-04-29T14:46:17.047Z,101185.19
2023-04-29T14:48:44.847Z,101190.47
2023-04-29T14:51:12.684Z,101194.03
2023-04-29T14:53:41.806Z,101190.47
2023-04-29T14:56:09.488Z,101195.03
2023-04-29T14:58:37.230Z,101201.31
2023-04-29T15:01:04.907Z,101190.47
2023-04-29T15:03:32.836Z,101193.03
2023-04-29T15:06:01.696Z,101195.88
2023-04-29T15:08:29.469Z,101203.88
2023-04-29T15:10:58.578Z,101193.31
2023-04-29T15:13:26.321Z,101195.03
2023-04-29T15:15:54.061Z,101199.88
2023-04-29T15:18:23.255Z,101189.91
2023-04-29T15:20:51.870Z,101204.44
2023-04-29T15:23:19.500Z,101187.00
2023-04-29T15:25:47.136Z,101189.56
2023-04-29T15:28:16.196Z,101196.16
2023-04-29T15:30:43.925Z,101203.03
2023-04-29T15:33:11.696Z,101203.75
2023-04-29T15:35:39.399Z,101205.44
2023-04-29T15:38:07.010Z,101198.31
2023-04-29T15:40:34.719Z,101203.59
2023-04-29T15:43:02.372Z,101204.44
2023-04-29T15:45:31.541Z,101205.28
2023-04-29T15:47:59.208Z,101208.16
2023-04-29T15:50:26.955Z,101213.56
2023-04-29T15:52:56.046Z,101211.88
2023-04-29T15:55:23.636Z,101217.31
2023-04-29T15:57:51.468Z,101217.31
2023-04-29T16:00:19.619Z,101222.72
2023-04-29T16:02:48.757Z,101228.16
2023-04-29T16:05:16.587Z,101229.00
2023-04-29T16:07:44.634Z,101228.16
2023-04-29T16:10:12.392Z,101236.28
2023-04-29T16:12:40.027Z,101240.69
2023-04-29T16:15:08.607Z,101239.00
2023-04-29T16:17:36.321Z,101239.13
2023-04-29T16:20:05.551Z,101237.56
2023-04-29T16:22:33.264Z,101239.56
2023-04-29T16:25:01.644Z,101250.69
2023-04-29T16:27:29.921Z,101243.53
2023-04-29T16:29:57.783Z,101238.09
2023-04-29T16:32:27.760Z,101250.97
2023-04-29T16:34:55.569Z,101249.22
2023-04-29T16:37:24.965Z,101242.69
2023-04-29T16:39:52.845Z,101247.97
2023-04-29T16:42:20.671Z,101248.69
2023-04-29T16:44:48.287Z,101282.94
2023-04-29T16:47:16.220Z,101256.66
2023-04-29T16:49:43.858Z,101253.81
2023-04-29T16:52:12.650Z,101251.25
2023-04-29T16:54:42.228Z,101259.25
2023-04-29T16:57:09.863Z,101262.97
2023-04-29T16:59:37.537Z,101266.41
2023-04-29T17:02:05.235Z,101270.09
2023-04-29T17:04:33.086Z,101266.66
2023-04-29T17:07:01.420Z,101275.66
2023-04-29T17:09:29.260Z,101267.53
2023-04-29T17:11:58.552Z,101274.81
2023-04-29T17:14:26.316Z,101278.50
2023-04-29T17:16:53.951Z,101271.38
2023-04-29T17:19:21.671Z,101286.91
2023-04-29T17:21:49.578Z,101294.06
2023-04-29T17:24:18.172Z,101296.78
2023-04-29T17:26:45.951Z,101303.19
2023-04-29T17:29:15.040Z,101299.63
2023-04-29T17:31:54.692Z,101309.63
2023-04-29T17:34:25.568Z,101310.59
2023-04-29T17:36:53.324Z,101313.31
2023-04-29T17:39:21.036Z,101308.88
2023-04-29T17:41:48.750Z,101308.88
2023-04-29T17:44:17.828Z,101307.19
2023-04-29T17:46:45.481Z,101317.16
2023-04-29T17:49:13.088Z,101323.44
2023-04-29T17:51:40.748Z,101314.56
2023-04-29T17:54:08.566Z,101320.97
2023-04-29T17:56:36.201Z,101324.53
2023-04-29T17:59:05.120Z,101327.38
2023-04-29T18:01:34.229Z,101336.41
2023-04-29T18:04:01.931Z,101338.22
2023-04-29T18:06:30.472Z,101339.38
2023-04-29T18:08:58.180Z,101337.53
2023-04-29T18:11:26.024Z,101337.66
2023-04-29T18:13:53.694Z,101333.09
2023-04-29T18:16:21.369Z,101361.91
2023-04-29T18:18:54.517Z,101352.19
2023-04-29T18:21:23.939Z,101354.06
2023-04-29T18:23:51.564Z,101353.22
2023-04-29T18:26:19.507Z,101358.63
2023-04-29T18:28:47.785Z,101352.34
2023-04-29T18:31:15.850Z,101365.03
2023-04-29T18:33:43.607Z,101367.88
2023-04-29T18:36:14.140Z,101368.88
2023-04-29T18:38:41.901Z,101364.47
2023-04-29T18:41:09.636Z,101365.31
2023-04-29T18:43:37.301Z,101377.00
2023-04-29T18:46:05.039Z,101378.72
2023-04-29T18:48:34.461Z,101380.47
2023-04-29T18:51:04.198Z,101374.28
2023-04-29T18:53:34.611Z,101387.84
2023-04-29T18:56:02.328Z,101393.25
2023-04-29T18:58:30.367Z,101397.00
2023-04-29T19:00:59.900Z,101403.25
2023-04-29T19:03:27.790Z,101403.41
2023-04-29T19:05:55.466Z,101406.09
2023-04-29T19:08:23.212Z,101407.09
2023-04-29T19:10:53.467Z,101413.53
2023-04-29T19:13:21.162Z,101419.78
2023-04-29T19:15:50.710Z,101424.38
2023-04-29T19:18:19.946Z,101420.78
2023-04-29T19:20:48.912Z,101424.38
2023-04-29T19:23:16.759Z,101425.22
2023-04-29T19:25:44.466Z,101436.91
2023-04-29T19:28:13.452Z,101428.06
2023-04-29T19:30:41.091Z,101436.91
2023-04-29T19:33:08.996Z,101439.75
2023-04-29T19:35:36.714Z,101444.31
2023-04-29T19:38:04.388Z,101447.03
2023-04-29T19:40:32.036Z,101448.00
2023-04-29T19:42:59.701Z,101448.91
2023-04-29T19:45:28.908Z,101447.16
2023-04-29T19:47:56.802Z,101445.44
2023-04-29T19:50:24.666Z,101446.31
2023-04-29T19:52:52.346Z,101453.44
2023-04-29T19:55:20.002Z,101450.00
2023-04-29T19:57:48.014Z,101457.28
2023-04-29T20:00:15.690Z,101448.00
2023-04-29T20:02:44.927Z,101459.53
2023-04-29T20:05:13.717Z,101470.09
2023-04-29T20:07:41.557Z,101466.69
2023-04-29T20:10:09.590Z,101461.78
2023-04-29T20:12:37.333Z,101459.34
2023-04-29T20:15:05.839Z,101458.59
2023-04-29T20:17:33.555Z,101461.31
2023-04-29T20:20:02.657Z,101467.75
2023-04-29T20:22:30.383Z,101459.75
2023-04-29T20:24:58.089Z,101476.84
2023-04-29T20:27:25.715Z,101475.13
2023-04-29T20:29:53.507Z,101472.41
2023-04-29T20:32:21.672Z,101478.84
2023-04-29T20:34:49.400Z,101477.97
2023-04-29T20:37:19.867Z,101487.97
2023-04-29T20:39:47.656Z,101486.97
2023-04-29T20:42:15.379Z,101481.69
2023-04-29T20:44:42.975Z,101489.69
2023-04-29T20:47:10.716Z,101485.13
2023-04-29T20:49:38.342Z,101486.84
2023-04-29T20:52:07.284Z,101496.81
2023-04-29T20:54:36.331Z,101495.09
2023-04-29T20:57:05.574Z,101499.66
2023-04-29T20:59:33.628Z,101492.53
2023-04-29T21:02:01.265Z,101493.38
2023-04-29T21:04:29.058Z,101497.09
2023-04-29T21:06:56.698Z,101501.50
2023-04-29T21:09:24.389Z,101506.94
2023-04-29T21:11:53.428Z,101505.06
2023-04-29T21:14:21.099Z,101510.50
2023-04-29T21:16:48.862Z,101505.94
2023-04-29T21:19:16.508Z,101523.91
2023-04-29T21:21:44.773Z,101521.34
2023-04-29T21:24:12.448Z,101517.78
2023-04-29T21:26:40.126Z,101523.19
2023-04-29T21:29:09.118Z,101533.91
2023-04-29T21:31:36.880Z,101537.47
2023-04-29T21:34:04.660Z,101534.22
2023-04-29T21:36:32.669Z,101536.81
2023-04-29T21:39:00.413Z,101537.44
2023-04-29T21:41:28.386Z,101551.84
2023-04-29T21:43:56.198Z,101537.44
2023-04-29T21:46:25.326Z,101538.53
2023-04-29T21:48:52.996Z,101540.81
2023-04-29T21:51:22.710Z,101544.50
2023-04-29T21:53:50.360Z,101546.59
2023-04-29T21:56:17.993Z,101551.78
2023-04-29T21:58:45.894Z,101554.47
2023-04-29T22:01:26.667Z,101559.91
2023-04-29T22:03:56.119Z,101557.06
2023-04-29T22:06:23.986Z,101563.34
2023-04-29T22:08:51.731Z,101572.44
2023-04-29T22:11:19.625Z,101571.59
2023-04-29T22:13:47.345Z,101570.75
2023-04-29T22:16:15.027Z,101576.16
2023-04-29T22:18:42.684Z,101580.72
2023-04-29T22:21:11.841Z,101590.44
2023-04-29T22:23:39.565Z,101595.00
2023-04-29T22:26:07.241Z,101593.03
2023-04-29T22:28:35.018Z,101597.59
2023-04-29T22:31:02.866Z,101602.88
2023-04-29T22:33:31.617Z,101611.03
2023-04-29T22:35:59.316Z,101615.56
2023-04-29T22:38:29.223Z,101618.28
2023-04-29T22:40:56.962Z,101620.13
2023-04-29T22:43:24.672Z,101623.81
2023-04-29T22:45:53.089Z,101618.41
2023-04-29T22:48:21.309Z,101620.25
2023-04-29T22:50:53.004Z,101620.66
2023-04-29T22:53:20.682Z,101628.66
2023-04-29T22:55:53.030Z,101631.97
2023-04-29T22:58:20.711Z,101626.41
2023-04-29T23:00:51.002Z,101634.41
2023-04-29T23:03:18.885Z,101637.25
2023-04-29T23:05:47.263Z,101640.97
2023-04-29T23:08:14.937Z,101633.81
2023-04-29T23:10:42.612Z,101640.09
2023-04-29T23:13:12.939Z,101634.66
2023-04-29T23:15:40.989Z,101640.97
2023-04-29T23:18:08.692Z,101636.53
2023-04-29T23:20:36.348Z,101640.22
2023-04-29T23:23:03.961Z,101641.22
2023-04-29T23:25:32.638Z,101653.78
2023-04-29T23:28:00.303Z,101644.06
